createdAt,value
2023-02-12T00:01:08.725Z,7.44
2023-02-12T00:03:35.913Z,7.46
2023-02-12T00:06:02.415Z,7.45
2023-02-12T00:08:28.819Z,7.47
2023-02-12T00:10:55.214Z,7.43
2023-02-12T00:13:21.621Z,7.41
2023-02-12T00:15:47.977Z,7.40
2023-02-12T00:18:14.350Z,7.41
2023-02-12T00:20:40.768Z,7.39
2023-02-12T00:23:07.543Z,7.41
2023-02-12T00:25:34.499Z,7.38
2023-02-12T00:28:00.880Z,7.36
2023-02-12T00:30:27.274Z,7.38
2023-02-12T00:32:54.987Z,7.33
2023-02-12T00:35:21.325Z,7.35
2023-02-12T00:37:49.727Z,7.34
2023-02-12T00:40:16.198Z,7.35
2023-02-12T00:42:42.773Z,7.34
2023-02-12T00:45:11.292Z,7.34
2023-02-12T00:47:37.622Z,7.30
2023-02-12T00:50:04.103Z,7.28
2023-02-12T00:52:30.478Z,7.26
2023-02-12T00:54:56.856Z,7.23
2023-02-12T00:57:23.186Z,7.23
2023-02-12T00:59:49.545Z,7.22
2023-02-12T01:02:18.015Z,7.23
2023-02-12T01:04:44.724Z,7.20
2023-02-12T01:07:11.280Z,7.22
2023-02-12T01:09:37.718Z,7.20
2023-02-12T01:12:04.450Z,7.19
2023-02-12T01:14:30.855Z,7.17
2023-02-12T01:16:58.201Z,7.12
2023-02-12T01:19:24.760Z,7.13
2023-02-12T01:21:51.074Z,7.13
2023-02-12T01:24:17.443Z,7.14
2023-02-12T01:26:43.807Z,7.17
2023-02-12T01:29:10.268Z,7.19
2023-02-12T01:31:39.341Z,7.19
2023-02-12T01:34:07.430Z,7.22
2023-02-12T01:36:34.703Z,7.20
2023-02-12T01:39:02.855Z,7.22
2023-02-12T01:41:36.398Z,7.17
2023-02-12T01:44:10.633Z,7.13
2023-02-12T01:46:37.146Z,7.11
2023-02-12T01:49:07.108Z,7.08
2023-02-12T01:51:34.826Z,7.06
2023-02-12T01:54:05.200Z,7.05
2023-02-12T01:56:32.672Z,7.06
2023-02-12T01:58:59.160Z,7.05
2023-02-12T02:01:28.690Z,7.05
2023-02-12T02:03:59.823Z,7.03
2023-02-12T02:06:31.945Z,7.04
2023-02-12T02:09:01.076Z,7.02
2023-02-12T02:11:45.718Z,6.99
2023-02-12T02:14:31.094Z,6.94
2023-02-12T02:17:17.484Z,6.95
2023-02-12T02:20:02.450Z,6.95
2023-02-12T02:22:53.530Z,6.89
2023-02-12T02:25:45.011Z,6.88
2023-02-12T02:28:39.184Z,6.88
2023-02-12T02:31:11.685Z,6.87
2023-02-12T02:34:05.764Z,6.89
2023-02-12T02:36:59.253Z,6.91
2023-02-12T02:39:41.750Z,6.88
2023-02-12T02:42:16.195Z,6.93
2023-02-12T02:45:05.710Z,6.94
2023-02-12T02:47:37.949Z,6.92
2023-02-12T02:50:09.316Z,6.96
2023-02-12T02:52:41.938Z,6.95
2023-02-12T02:55:12.796Z,6.96
2023-02-12T02:57:48.860Z,6.96
2023-02-12T03:00:27.286Z,6.93
2023-02-12T03:03:01.819Z,6.92
2023-02-12T03:05:35.163Z,6.95
2023-02-12T03:08:34.159Z,6.98
2023-02-12T03:11:11.896Z,7.03
2023-02-12T03:13:51.199Z,6.97
2023-02-12T03:16:25.823Z,6.95
2023-02-12T03:18:58.711Z,7.01
2023-02-12T03:21:33.074Z,7.00
2023-02-12T03:24:11.889Z,6.98
2023-02-12T03:26:46.133Z,6.98
2023-02-12T03:29:13.097Z,6.94
2023-02-12T03:31:51.331Z,6.96
2023-02-12T03:34:45.486Z,6.99
2023-02-12T03:37:37.082Z,6.98
2023-02-12T03:40:20.471Z,6.98
2023-02-12T03:43:12.686Z,7.03
2023-02-12T03:45:49.004Z,6.98
2023-02-12T03:48:33.621Z,6.98
2023-02-12T03:51:10.909Z,6.92
2023-02-12T03:53:37.386Z,6.94
2023-02-12T03:56:12.396Z,6.90
2023-02-12T03:58:41.759Z,6.91
2023-02-12T04:01:08.800Z,6.93
2023-02-12T04:03:35.311Z,6.92
2023-02-12T04:06:01.652Z,6.93
2023-02-12T04:08:28.478Z,6.91
2023-02-12T04:11:17.039Z,6.95
2023-02-12T04:13:57.758Z,6.91
2023-02-12T04:16:37.818Z,6.93
2023-02-12T04:19:04.998Z,6.91
2023-02-12T04:21:52.048Z,6.96
2023-02-12T04:24:36.528Z,6.84
2023-02-12T04:27:18.867Z,6.71
2023-02-12T04:29:54.594Z,6.81
2023-02-12T04:32:31.465Z,6.88
2023-02-12T04:35:05.966Z,6.93
2023-02-12T04:37:45.881Z,6.96
2023-02-12T04:40:14.848Z,6.91
2023-02-12T04:42:43.628Z,6.90
2023-02-12T04:45:16.485Z,6.92
2023-02-12T04:47:42.935Z,6.86
2023-02-12T04:50:09.745Z,6.90
2023-02-12T04:52:36.083Z,6.89
2023-02-12T04:55:02.543Z,6.94
2023-02-12T04:57:28.999Z,6.95
2023-02-12T04:59:55.430Z,7.02
2023-02-12T05:02:22.037Z,7.05
2023-02-12T05:04:51.300Z,7.01
2023-02-12T05:07:17.817Z,6.94
2023-02-12T05:09:44.155Z,6.93
2023-02-12T05:12:10.570Z,6.92
2023-02-12T05:14:37.044Z,6.93
2023-02-12T05:17:03.491Z,6.96
2023-02-12T05:19:29.907Z,6.94
2023-02-12T05:21:56.283Z,7.00
2023-02-12T05:24:22.615Z,6.98
2023-02-12T05:26:50.994Z,6.97
2023-02-12T05:29:18.054Z,6.92
2023-02-12T05:31:44.884Z,6.89
2023-02-12T05:34:12.632Z,6.92
2023-02-12T05:36:39.877Z,6.90
2023-02-12T05:39:07.239Z,6.89
2023-02-12T05:41:36.444Z,6.90
2023-02-12T05:44:04.129Z,6.96
2023-02-12T05:46:31.293Z,6.93
2023-02-12T05:48:57.826Z,6.93
2023-02-12T05:51:26.080Z,6.96
2023-02-12T05:53:58.692Z,6.94
2023-02-12T05:56:27.898Z,6.89
2023-02-12T05:59:06.999Z,6.84
2023-02-12T06:01:39.318Z,6.88
2023-02-12T06:04:07.953Z,6.86
2023-02-12T06:06:34.742Z,6.92
2023-02-12T06:09:01.340Z,6.88
2023-02-12T06:11:28.020Z,6.90
2023-02-12T06:13:54.387Z,6.93
2023-02-12T06:16:23.790Z,6.90
2023-02-12T06:18:51.089Z,6.85
2023-02-12T06:21:20.059Z,6.84
2023-02-12T06:23:46.943Z,6.84
2023-02-12T06:26:13.374Z,6.86
2023-02-12T06:28:39.840Z,6.82
2023-02-12T06:31:25.786Z,6.81
2023-02-12T06:33:52.961Z,6.79
2023-02-12T06:36:19.680Z,6.80
2023-02-12T06:38:46.481Z,6.75
2023-02-12T06:41:12.901Z,6.77
2023-02-12T06:43:39.455Z,6.74
2023-02-12T06:46:07.042Z,6.75
2023-02-12T06:48:33.938Z,6.73
2023-02-12T06:51:11.690Z,6.76
2023-02-12T06:53:38.101Z,6.73
2023-02-12T06:56:06.482Z,6.71
2023-02-12T06:58:32.930Z,6.69
2023-02-12T07:01:12.190Z,6.63
2023-02-12T07:03:40.531Z,6.58
2023-02-12T07:06:07.085Z,6.54
2023-02-12T07:08:33.403Z,6.53
2023-02-12T07:10:59.745Z,6.52
2023-02-12T07:13:26.071Z,6.55
2023-02-12T07:15:52.451Z,6.55
2023-02-12T07:18:18.832Z,6.57
2023-02-12T07:20:45.242Z,6.57
2023-02-12T07:23:12.407Z,6.52
2023-02-12T07:25:38.870Z,6.52
2023-02-12T07:28:05.305Z,6.50
2023-02-12T07:30:31.790Z,6.52
2023-02-12T07:32:58.140Z,6.52
2023-02-12T07:35:24.450Z,6.51
2023-02-12T07:37:50.773Z,6.59
2023-02-12T07:40:17.297Z,6.64
2023-02-12T07:42:43.600Z,6.68
2023-02-12T07:45:10.620Z,6.73
2023-02-12T07:47:38.413Z,6.77
2023-02-12T07:50:07.122Z,6.79
2023-02-12T07:52:33.449Z,6.85
2023-02-12T07:54:59.788Z,6.85
2023-02-12T07:57:26.128Z,6.93
2023-02-12T07:59:52.738Z,6.95
2023-02-12T08:02:19.167Z,6.99
2023-02-12T08:04:45.552Z,7.06
2023-02-12T08:07:11.976Z,7.09
2023-02-12T08:09:38.347Z,7.14
2023-02-12T08:12:04.931Z,7.16
2023-02-12T08:14:31.419Z,7.21
2023-02-12T08:16:57.818Z,7.17
2023-02-12T08:19:26.642Z,7.19
2023-02-12T08:21:54.726Z,7.26
2023-02-12T08:24:23.787Z,7.32
2023-02-12T08:26:50.623Z,7.35
2023-02-12T08:29:27.163Z,7.40
2023-02-12T08:31:59.687Z,7.36
2023-02-12T08:34:34.795Z,7.41
2023-02-12T08:37:01.873Z,7.46
2023-02-12T08:39:29.742Z,7.50
2023-02-12T08:41:57.911Z,7.50
2023-02-12T08:44:24.312Z,7.56
2023-02-12T08:46:52.403Z,7.57
2023-02-12T08:49:22.188Z,7.63
2023-02-12T08:51:51.617Z,7.67
2023-02-12T08:54:20.603Z,7.74
2023-02-12T08:56:47.163Z,7.74
2023-02-12T08:59:14.841Z,7.71
2023-02-12T09:01:42.218Z,7.77
2023-02-12T09:04:14.999Z,7.82
2023-02-12T09:06:41.432Z,7.86
2023-02-12T09:09:07.894Z,7.88
2023-02-12T09:11:34.428Z,7.97
2023-02-12T09:14:03.538Z,8.00
2023-02-12T09:16:32.331Z,8.06
2023-02-12T09:18:58.841Z,8.11
2023-02-12T09:21:25.329Z,8.15
2023-02-12T09:23:51.918Z,8.22
2023-02-12T09:26:21.296Z,8.19
2023-02-12T09:28:49.739Z,8.25
2023-02-12T09:31:20.712Z,8.25
2023-02-12T09:33:50.521Z,8.23
2023-02-12T09:36:18.146Z,8.27
2023-02-12T09:38:44.601Z,8.31
2023-02-12T09:41:34.699Z,8.35
2023-02-12T09:44:27.577Z,8.39
2023-02-12T09:47:06.749Z,8.37
2023-02-12T09:49:49.893Z,8.47
2023-02-12T09:52:20.383Z,8.48
2023-02-12T09:54:49.589Z,8.55
2023-02-12T09:57:37.586Z,8.57
2023-02-12T10:00:15.331Z,8.63
2023-02-12T10:02:42.075Z,8.70
2023-02-12T10:05:42.740Z,8.76
2023-02-12T10:08:31.784Z,8.79
2023-02-12T10:11:35.106Z,8.88
2023-02-12T10:14:20.135Z,8.92
2023-02-12T10:17:15.644Z,8.89
2023-02-12T10:20:03.975Z,8.92
2023-02-12T10:22:57.144Z,9.00
2023-02-12T10:25:34.157Z,9.03
2023-02-12T10:28:08.881Z,9.14
2023-02-12T10:30:42.812Z,9.21
2023-02-12T10:33:29.387Z,9.26
2023-02-12T10:36:03.095Z,9.30
2023-02-12T10:38:36.315Z,9.39
2023-02-12T10:41:02.740Z,9.43
2023-02-12T10:43:29.783Z,9.47
2023-02-12T10:45:57.237Z,9.54
2023-02-12T10:48:38.687Z,9.57
2023-02-12T10:51:07.954Z,9.62
2023-02-12T10:53:37.783Z,9.62
2023-02-12T10:56:13.236Z,9.67
2023-02-12T10:58:42.516Z,9.76
2023-02-12T11:01:16.844Z,9.70
2023-02-12T11:03:43.203Z,9.77
2023-02-12T11:06:16.319Z,9.80
2023-02-12T11:08:43.794Z,9.74
2023-02-12T11:11:22.975Z,9.73
2023-02-12T11:14:02.538Z,9.78
2023-02-12T11:16:34.033Z,9.79
2023-02-12T11:19:22.227Z,9.85
2023-02-12T11:21:49.796Z,9.85
2023-02-12T11:24:34.377Z,9.84
2023-02-12T11:27:15.595Z,9.73
2023-02-12T11:29:44.356Z,9.80
2023-02-12T11:32:19.543Z,9.89
2023-02-12T11:35:06.850Z,9.98
2023-02-12T11:37:36.414Z,10.08
2023-02-12T11:40:03.514Z,10.07
2023-02-12T11:42:34.757Z,10.00
2023-02-12T11:45:02.187Z,9.98
2023-02-12T11:47:31.916Z,9.96
2023-02-12T11:50:15.915Z,10.07
2023-02-12T11:52:42.769Z,10.08
2023-02-12T11:55:27.514Z,10.11
2023-02-12T11:58:13.430Z,10.09
2023-02-12T12:00:48.951Z,10.14
2023-02-12T12:03:21.604Z,10.10
2023-02-12T12:05:54.579Z,10.09
2023-02-12T12:08:29.388Z,10.16
2023-02-12T12:11:09.360Z,10.21
2023-02-12T12:13:44.423Z,10.21
2023-02-12T12:16:34.415Z,10.23
2023-02-12T12:19:52.295Z,10.18
2023-02-12T12:22:41.186Z,10.14
2023-02-12T12:25:20.778Z,10.08
2023-02-12T12:28:07.984Z,10.11
2023-02-12T12:31:02.464Z,10.17
2023-02-12T12:33:47.747Z,10.23
2023-02-12T12:36:14.081Z,10.20
2023-02-12T12:38:55.165Z,10.20
2023-02-12T12:41:47.860Z,10.22
2023-02-12T12:44:38.788Z,10.26
2023-02-12T12:47:17.643Z,10.27
2023-02-12T12:50:14.993Z,10.19
2023-02-12T12:52:57.494Z,10.27
2023-02-12T12:56:01.410Z,10.28
2023-02-12T12:58:44.681Z,10.25
2023-02-12T13:01:35.052Z,10.28
2023-02-12T13:04:32.291Z,10.26
2023-02-12T13:07:13.226Z,10.27
2023-02-12T13:09:48.436Z,10.23
2023-02-12T13:12:23.915Z,10.23
2023-02-12T13:15:01.297Z,10.22
2023-02-12T13:17:45.871Z,10.14
2023-02-12T13:20:45.117Z,10.14
2023-02-12T13:23:23.545Z,10.11
2023-02-12T13:26:07.543Z,10.14
2023-02-12T13:28:38.316Z,10.15
2023-02-12T13:31:30.038Z,10.14
2023-02-12T13:33:59.757Z,10.15
2023-02-12T13:36:26.143Z,10.11
2023-02-12T13:39:01.526Z,10.09
2023-02-12T13:41:28.579Z,10.12
2023-02-12T13:44:01.635Z,10.13
2023-02-12T13:46:40.013Z,10.15
2023-02-12T13:49:24.653Z,10.26
2023-02-12T13:52:13.746Z,10.27
2023-02-12T13:54:55.617Z,10.21
2023-02-12T13:57:22.019Z,10.22
2023-02-12T13:59:54.056Z,10.19
2023-02-12T14:02:37.048Z,10.18
2023-02-12T14:05:18.662Z,10.18
2023-02-12T14:07:55.319Z,10.21
2023-02-12T14:10:34.838Z,10.17
2023-02-12T14:13:15.795Z,10.18
2023-02-12T14:15:45.316Z,10.21
2023-02-12T14:18:28.880Z,10.15
2023-02-12T14:21:13.398Z,10.13
2023-02-12T14:23:45.843Z,10.13
2023-02-12T14:26:17.923Z,10.13
2023-02-12T14:28:58.588Z,10.15
2023-02-12T14:31:32.852Z,10.11
2023-02-12T14:34:05.410Z,10.06
2023-02-12T14:36:41.335Z,10.13
2023-02-12T14:39:19.727Z,10.09
2023-02-12T14:41:47.442Z,10.00
2023-02-12T14:44:16.849Z,9.84
2023-02-12T14:46:55.058Z,9.85
2023-02-12T14:49:42.574Z,9.87
2023-02-12T14:52:17.767Z,9.89
2023-02-12T14:54:57.436Z,9.65
2023-02-12T14:57:40.458Z,9.68
2023-02-12T15:00:34.391Z,9.68
2023-02-12T15:03:12.782Z,9.74
2023-02-12T15:05:48.146Z,9.66
2023-02-12T15:08:34.508Z,9.73
2023-02-12T15:11:19.379Z,9.60
2023-02-12T15:13:54.745Z,9.47
2023-02-12T15:16:24.060Z,9.41
2023-02-12T15:18:50.383Z,9.30
2023-02-12T15:21:22.822Z,9.25
2023-02-12T15:24:06.348Z,9.36
2023-02-12T15:26:45.053Z,9.21
2023-02-12T15:29:20.850Z,9.37
2023-02-12T15:31:52.784Z,9.16
2023-02-12T15:34:22.191Z,9.06
2023-02-12T15:36:48.854Z,9.15
2023-02-12T15:39:20.626Z,9.15
2023-02-12T15:41:47.938Z,9.21
2023-02-12T15:44:24.584Z,9.16
2023-02-12T15:47:11.610Z,9.17
2023-02-12T15:49:39.614Z,9.19
2023-02-12T15:52:17.432Z,9.12
2023-02-12T15:54:45.847Z,9.15
2023-02-12T15:57:19.300Z,9.18
2023-02-12T15:59:51.381Z,9.14
2023-02-12T16:02:21.531Z,9.20
2023-02-12T16:04:48.600Z,9.16
2023-02-12T16:07:15.795Z,9.11
2023-02-12T16:09:43.251Z,9.15
2023-02-12T16:12:14.338Z,9.14
2023-02-12T16:14:47.832Z,9.09
2023-02-12T16:17:19.980Z,9.07
2023-02-12T16:19:57.200Z,9.04
2023-02-12T16:22:38.004Z,9.06
2023-02-12T16:25:15.379Z,9.08
2023-02-12T16:27:52.992Z,9.03
2023-02-12T16:30:42.687Z,8.99
2023-02-12T16:33:40.222Z,8.91
2023-02-12T16:36:13.861Z,8.97
2023-02-12T16:38:48.483Z,9.01
2023-02-12T16:41:17.818Z,9.00
2023-02-12T16:43:50.757Z,8.98
2023-02-12T16:46:19.782Z,8.93
2023-02-12T16:48:49.421Z,8.93
2023-02-12T16:51:32.120Z,8.97
2023-02-12T16:54:01.097Z,8.94
2023-02-12T16:56:30.656Z,8.95
2023-02-12T16:58:58.810Z,8.87
2023-02-12T17:01:31.339Z,8.90
2023-02-12T17:04:00.120Z,8.88
2023-02-12T17:06:30.979Z,8.84
2023-02-12T17:08:58.193Z,8.90
2023-02-12T17:11:26.080Z,8.96
2023-02-12T17:13:54.446Z,8.90
2023-02-12T17:16:30.340Z,8.94
2023-02-12T17:18:57.606Z,8.96
2023-02-12T17:21:27.307Z,8.86
2023-02-12T17:23:56.337Z,8.82
2023-02-12T17:26:24.124Z,8.78
2023-02-12T17:28:50.885Z,8.81
2023-02-12T17:31:17.565Z,8.82
2023-02-12T17:33:44.377Z,8.77
2023-02-12T17:36:12.091Z,8.78
2023-02-12T17:38:38.433Z,8.76
2023-02-12T17:41:11.496Z,8.77
2023-02-12T17:43:38.051Z,8.75
2023-02-12T17:46:18.436Z,8.75
2023-02-12T17:48:44.834Z,8.70
2023-02-12T17:51:11.615Z,8.68
2023-02-12T17:53:39.212Z,8.76
2023-02-12T17:56:09.594Z,8.68
2023-02-12T17:58:36.014Z,8.71
2023-02-12T18:01:11.494Z,8.67
2023-02-12T18:03:38.320Z,8.65
2023-02-12T18:06:05.212Z,8.65
2023-02-12T18:08:31.751Z,8.62
2023-02-12T18:10:58.706Z,8.59
2023-02-12T18:13:26.917Z,8.59
2023-02-12T18:15:56.193Z,8.56
2023-02-12T18:18:22.682Z,8.52
2023-02-12T18:20:49.166Z,8.49
2023-02-12T18:23:15.559Z,8.50
2023-02-12T18:25:43.305Z,8.54
2023-02-12T18:28:10.882Z,8.51
2023-02-12T18:30:38.882Z,8.54
2023-02-12T18:33:05.803Z,8.60
2023-02-12T18:35:32.749Z,8.52
2023-02-12T18:37:59.267Z,8.51
2023-02-12T18:40:25.745Z,8.55
2023-02-12T18:42:52.398Z,8.43
2023-02-12T18:45:19.358Z,8.46
2023-02-12T18:47:45.805Z,8.47
2023-02-12T18:50:12.170Z,8.41
2023-02-12T18:52:38.541Z,8.49
2023-02-12T18:55:06.986Z,8.42
2023-02-12T18:57:33.549Z,8.39
2023-02-12T18:59:59.957Z,8.45
2023-02-12T19:02:26.414Z,8.43
2023-02-12T19:04:52.837Z,8.43
2023-02-12T19:07:19.242Z,8.48
2023-02-12T19:09:45.766Z,8.50
2023-02-12T19:12:12.183Z,8.39
2023-02-12T19:14:38.586Z,8.43
2023-02-12T19:17:04.979Z,8.48
2023-02-12T19:19:31.337Z,8.42
2023-02-12T19:21:57.788Z,8.41
2023-02-12T19:24:24.373Z,8.38
2023-02-12T19:26:53.421Z,8.46
2023-02-12T19:29:20.314Z,8.37
2023-02-12T19:31:46.898Z,8.36
2023-02-12T19:34:19.313Z,8.38
2023-02-12T19:36:46.868Z,8.41
2023-02-12T19:39:15.863Z,8.41
2023-02-12T19:41:42.567Z,8.44
2023-02-12T19:44:18.859Z,8.36
2023-02-12T19:46:47.092Z,8.31
2023-02-12T19:49:16.656Z,8.35
2023-02-12T19:51:44.229Z,8.26
2023-02-12T19:54:12.897Z,8.25
2023-02-12T19:56:39.944Z,8.25
2023-02-12T19:59:07.200Z,8.24
2023-02-12T20:01:34.446Z,8.23
2023-02-12T20:04:01.839Z,8.26
2023-02-12T20:06:31.697Z,8.21
2023-02-12T20:08:58.361Z,8.21
2023-02-12T20:11:28.647Z,8.20
2023-02-12T20:13:55.907Z,8.24
2023-02-12T20:16:25.581Z,8.28
2023-02-12T20:18:53.762Z,8.26
2023-02-12T20:21:28.178Z,8.22
2023-02-12T20:23:55.190Z,8.20
2023-02-12T20:26:22.133Z,8.23
2023-02-12T20:28:49.748Z,8.24
2023-02-12T20:31:19.083Z,8.24
2023-02-12T20:33:46.289Z,8.28
2023-02-12T20:36:13.701Z,8.26
2023-02-12T20:38:42.210Z,8.26
2023-02-12T20:41:10.102Z,8.26
2023-02-12T20:43:37.453Z,8.19
2023-02-12T20:46:14.632Z,8.24
2023-02-12T20:48:42.019Z,8.21
2023-02-12T20:51:11.369Z,8.21
2023-02-12T20:53:38.377Z,8.20
2023-02-12T20:56:07.488Z,8.14
2023-02-12T20:58:34.518Z,8.20
2023-02-12T21:01:12.838Z,8.19
2023-02-12T21:03:40.182Z,8.17
2023-02-12T21:06:07.295Z,8.10
2023-02-12T21:08:36.531Z,8.08
2023-02-12T21:11:05.988Z,8.08
2023-02-12T21:13:33.510Z,8.08
2023-02-12T21:16:05.254Z,8.07
2023-02-12T21:18:31.843Z,8.16
2023-02-12T21:21:06.754Z,8.12
2023-02-12T21:23:34.821Z,8.14
2023-02-12T21:26:10.182Z,8.15
2023-02-12T21:28:36.985Z,8.12
2023-02-12T21:31:07.910Z,8.10
2023-02-12T21:33:37.764Z,8.10
2023-02-12T21:36:09.300Z,8.10
2023-02-12T21:38:39.758Z,8.16
2023-02-12T21:41:22.870Z,8.10
2023-02-12T21:43:51.720Z,8.09
2023-02-12T21:46:20.938Z,8.07
2023-02-12T21:48:47.417Z,8.03
2023-02-12T21:51:24.221Z,8.00
2023-02-12T21:53:52.702Z,8.06
2023-02-12T21:56:20.450Z,8.02
2023-02-12T21:58:47.655Z,8.02
2023-02-12T22:01:16.812Z,8.05
2023-02-12T22:03:46.746Z,8.00
2023-02-12T22:06:15.008Z,8.04
2023-02-12T22:08:41.403Z,8.11
2023-02-12T22:11:10.155Z,8.07
2023-02-12T22:13:37.532Z,8.15
2023-02-12T22:16:14.913Z,8.09
2023-02-12T22:18:42.301Z,8.00
2023-02-12T22:21:13.100Z,7.95
2023-02-12T22:23:40.566Z,8.00
2023-02-12T22:26:21.380Z,7.99
2023-02-12T22:28:50.360Z,7.98
2023-02-12T22:31:19.921Z,8.04
2023-02-12T22:33:46.853Z,8.02
2023-02-12T22:36:13.288Z,8.05
2023-02-12T22:38:40.752Z,8.02
2023-02-12T22:41:08.716Z,8.04
2023-02-12T22:43:37.121Z,8.00
2023-02-12T22:46:04.751Z,7.96
2023-02-12T22:48:31.302Z,7.97
2023-02-12T22:50:58.494Z,8.04
2023-02-12T22:53:26.219Z,8.08
2023-02-12T22:55:52.678Z,8.13
2023-02-12T22:58:19.235Z,8.04
2023-02-12T23:00:45.697Z,8.07
2023-02-12T23:03:12.124Z,8.05
2023-02-12T23:05:38.964Z,8.05
2023-02-12T23:08:06.328Z,8.06
2023-02-12T23:10:33.176Z,8.05
2023-02-12T23:13:01.388Z,8.10
2023-02-12T23:15:27.738Z,8.14
2023-02-12T23:17:54.138Z,8.17
2023-02-12T23:20:20.669Z,8.10
2023-02-12T23:22:47.101Z,8.05
2023-02-12T23:25:13.503Z,8.02
2023-02-12T23:27:39.882Z,8.04
2023-02-12T23:30:06.956Z,7.94
2023-02-12T23:32:33.282Z,7.91
2023-02-12T23:34:59.636Z,7.92
2023-02-12T23:37:25.968Z,7.91
2023-02-12T23:39:52.373Z,7.96
2023-02-12T23:42:18.996Z,7.90
2023-02-12T23:44:45.358Z,7.88
2023-02-12T23:47:11.701Z,7.92
2023-02-12T23:49:38.723Z,7.94
2023-02-12T23:52:05.109Z,7.94
2023-02-12T23:54:31.729Z,7.98
2023-02-12T23:56:58.234Z,7.97
2023-02-12T23:59:25.568Z,7.85
